sensor_id;sensor_type;location;lat;lon;timestamp;P1;durP1;ratioP1;P2;durP2;ratioP2
549;SDS011;20066;48.764;9.176;2023-04-09T00:01:44;22.02;;;11.60;;
549;SDS011;20066;48.764;9.176;2023-04-09T00:04:13;14.07;;;9.73;;
549;SDS011;20066;48.764;9.176;2023-04-09T00:06:41;14.25;;;10.15;;
549;SDS011;20066;48.764;9.176;2023-04-09T00:09:08;16.98;;;9.98;;
549;SDS011;20066;48.764;9.176;2023-04-09T00:11:36;19.98;;;10.50;;
549;SDS011;20066;48.764;9.176;2023-04-09T00:14:04;15.93;;;10.27;;
549;SDS011;20066;48.764;9.176;2023-04-09T00:16:32;17.38;;;10.50;;
549;SDS011;20066;48.764;9.176;2023-04-09T00:19:00;18.10;;;10.25;;
549;SDS011;20066;48.764;9.176;2023-04-09T00:21:29;18.65;;;10.45;;
549;SDS011;20066;48.764;9.176;2023-04-09T00:23:57;16.33;;;10.68;;
549;SDS011;20066;48.764;9.176;2023-04-09T00:26:25;18.33;;;10.93;;
549;SDS011;20066;48.764;9.176;2023-04-09T00:28:53;19.15;;;11.05;;
549;SDS011;20066;48.764;9.176;2023-04-09T00:31:20;14.63;;;9.60;;
549;SDS011;20066;48.764;9.176;2023-04-09T00:33:48;15.85;;;9.52;;
549;SDS011;20066;48.764;9.176;2023-04-09T00:36:16;17.70;;;11.20;;
549;SDS011;20066;48.764;9.176;2023-04-09T00:38:45;16.10;;;9.63;;
549;SDS011;20066;48.764;9.176;2023-04-09T00:41:13;15.65;;;10.30;;
549;SDS011;20066;48.764;9.176;2023-04-09T00:43:41;15.80;;;10.15;;
549;SDS011;20066;48.764;9.176;2023-04-09T00:46:09;16.73;;;10.25;;
549;SDS011;20066;48.764;9.176;2023-04-09T00:48:37;16.77;;;9.95;;
549;SDS011;20066;48.764;9.176;2023-04-09T00:51:06;19.08;;;10.82;;
549;SDS011;20066;48.764;9.176;2023-04-09T00:53:34;16.33;;;10.00;;
549;SDS011;20066;48.764;9.176;2023-04-09T00:56:03;17.88;;;11.15;;
549;SDS011;20066;48.764;9.176;2023-04-09T00:58:32;19.40;;;10.98;;
549;SDS011;20066;48.764;9.176;2023-04-09T01:01:01;19.52;;;11.60;;
549;SDS011;20066;48.764;9.176;2023-04-09T01:03:28;20.48;;;11.95;;
549;SDS011;20066;48.764;9.176;2023-04-09T01:05:59;18.33;;;11.30;;
549;SDS011;20066;48.764;9.176;2023-04-09T01:08:37;15.52;;;9.65;;
549;SDS011;20066;48.764;9.176;2023-04-09T01:11:19;18.77;;;11.18;;
549;SDS011;20066;48.764;9.176;2023-04-09T01:13:57;17.75;;;10.63;;
549;SDS011;20066;48.764;9.176;2023-04-09T01:16:31;14.45;;;9.80;;
549;SDS011;20066;48.764;9.176;2023-04-09T01:19:04;15.35;;;10.40;;
549;SDS011;20066;48.764;9.176;2023-04-09T01:21:42;16.70;;;10.30;;
549;SDS011;20066;48.764;9.176;2023-04-09T01:24:15;17.90;;;10.65;;
549;SDS011;20066;48.764;9.176;2023-04-09T01:26:56;15.90;;;10.82;;
549;SDS011;20066;48.764;9.176;2023-04-09T01:29:34;18.23;;;11.02;;
549;SDS011;20066;48.764;9.176;2023-04-09T01:32:06;15.13;;;9.73;;
549;SDS011;20066;48.764;9.176;2023-04-09T01:34:35;13.75;;;9.30;;
549;SDS011;20066;48.764;9.176;2023-04-09T01:37:04;16.85;;;9.27;;
549;SDS011;20066;48.764;9.176;2023-04-09T01:39:35;15.00;;;10.43;;
549;SDS011;20066;48.764;9.176;2023-04-09T01:42:04;13.40;;;9.23;;
549;SDS011;20066;48.764;9.176;2023-04-09T01:44:38;14.70;;;9.05;;
549;SDS011;20066;48.764;9.176;2023-04-09T01:47:06;15.13;;;9.25;;
549;SDS011;20066;48.764;9.176;2023-04-09T01:49:35;15.15;;;9.50;;
549;SDS011;20066;48.764;9.176;2023-04-09T01:52:04;15.48;;;9.88;;
549;SDS011;20066;48.764;9.176;2023-04-09T01:54:33;15.55;;;9.90;;
549;SDS011;20066;48.764;9.176;2023-04-09T01:57:01;14.93;;;9.75;;
549;SDS011;20066;48.764;9.176;2023-04-09T01:59:28;15.20;;;8.80;;
549;SDS011;20066;48.764;9.176;2023-04-09T02:01:59;14.63;;;8.95;;
549;SDS011;20066;48.764;9.176;2023-04-09T02:04:32;17.98;;;10.23;;
549;SDS011;20066;48.764;9.176;2023-04-09T02:07:03;15.00;;;9.07;;
549;SDS011;20066;48.764;9.176;2023-04-09T02:09:36;16.15;;;9.82;;
549;SDS011;20066;48.764;9.176;2023-04-09T02:12:09;14.95;;;9.48;;
549;SDS011;20066;48.764;9.176;2023-04-09T02:14:38;17.25;;;9.88;;
549;SDS011;20066;48.764;9.176;2023-04-09T02:17:08;22.38;;;12.68;;
549;SDS011;20066;48.764;9.176;2023-04-09T02:19:39;20.30;;;10.00;;
549;SDS011;20066;48.764;9.176;2023-04-09T02:22:07;15.07;;;10.00;;
549;SDS011;20066;48.764;9.176;2023-04-09T02:24:36;20.30;;;11.10;;
549;SDS011;20066;48.764;9.176;2023-04-09T02:27:03;17.65;;;10.20;;
549;SDS011;20066;48.764;9.176;2023-04-09T02:29:31;16.23;;;10.35;;
549;SDS011;20066;48.764;9.176;2023-04-09T02:31:59;17.30;;;10.60;;
549;SDS011;20066;48.764;9.176;2023-04-09T02:34:29;16.67;;;10.38;;
549;SDS011;20066;48.764;9.176;2023-04-09T02:36:56;15.68;;;10.05;;
549;SDS011;20066;48.764;9.176;2023-04-09T02:39:24;19.52;;;11.05;;
549;SDS011;20066;48.764;9.176;2023-04-09T02:41:52;17.52;;;10.38;;
549;SDS011;20066;48.764;9.176;2023-04-09T02:44:20;15.75;;;10.23;;
549;SDS011;20066;48.764;9.176;2023-04-09T02:46:49;13.95;;;9.50;;
549;SDS011;20066;48.764;9.176;2023-04-09T02:49:17;14.60;;;9.50;;
549;SDS011;20066;48.764;9.176;2023-04-09T02:51:46;14.63;;;9.18;;
549;SDS011;20066;48.764;9.176;2023-04-09T02:54:14;16.00;;;9.90;;
549;SDS011;20066;48.764;9.176;2023-04-09T02:56:42;15.77;;;9.48;;
549;SDS011;20066;48.764;9.176;2023-04-09T02:59:09;13.32;;;9.20;;
549;SDS011;20066;48.764;9.176;2023-04-09T03:01:37;15.00;;;10.32;;
549;SDS011;20066;48.764;9.176;2023-04-09T03:04:05;13.10;;;9.07;;
549;SDS011;20066;48.764;9.176;2023-04-09T03:06:33;16.48;;;9.38;;
549;SDS011;20066;48.764;9.176;2023-04-09T03:09:02;16.88;;;10.38;;
549;SDS011;20066;48.764;9.176;2023-04-09T03:11:30;13.82;;;9.30;;
549;SDS011;20066;48.764;9.176;2023-04-09T03:13:58;17.10;;;10.02;;
549;SDS011;20066;48.764;9.176;2023-04-09T03:16:26;17.80;;;10.00;;
549;SDS011;20066;48.764;9.176;2023-04-09T03:18:53;16.48;;;10.25;;
549;SDS011;20066;48.764;9.176;2023-04-09T03:21:21;15.05;;;9.65;;
549;SDS011;20066;48.764;9.176;2023-04-09T03:23:49;15.25;;;9.50;;
549;SDS011;20066;48.764;9.176;2023-04-09T03:26:18;18.52;;;10.45;;
549;SDS011;20066;48.764;9.176;2023-04-09T03:28:46;16.15;;;10.27;;
549;SDS011;20066;48.764;9.176;2023-04-09T03:31:14;17.23;;;10.68;;
549;SDS011;20066;48.764;9.176;2023-04-09T03:33:42;15.80;;;9.48;;
549;SDS011;20066;48.764;9.176;2023-04-09T03:36:09;17.00;;;10.75;;
549;SDS011;20066;48.764;9.176;2023-04-09T03:38:37;16.50;;;10.20;;
549;SDS011;20066;48.764;9.176;2023-04-09T03:41:05;15.80;;;9.93;;
549;SDS011;20066;48.764;9.176;2023-04-09T03:43:34;17.30;;;10.05;;
549;SDS011;20066;48.764;9.176;2023-04-09T03:46:09;15.25;;;9.75;;
549;SDS011;20066;48.764;9.176;2023-04-09T03:48:38;14.57;;;9.77;;
549;SDS011;20066;48.764;9.176;2023-04-09T03:53:49;14.85;;;9.57;;
549;SDS011;20066;48.764;9.176;2023-04-09T03:56:16;19.83;;;10.85;;
549;SDS011;20066;48.764;9.176;2023-04-09T03:58:46;16.60;;;10.82;;
549;SDS011;20066;48.764;9.176;2023-04-09T04:01:15;18.38;;;10.35;;
549;SDS011;20066;48.764;9.176;2023-04-09T04:03:42;16.95;;;10.30;;
549;SDS011;20066;48.764;9.176;2023-04-09T04:06:10;15.90;;;10.35;;
549;SDS011;20066;48.764;9.176;2023-04-09T04:08:38;14.93;;;10.25;;
549;SDS011;20066;48.764;9.176;2023-04-09T04:11:06;14.23;;;9.88;;
549;SDS011;20066;48.764;9.176;2023-04-09T04:13:33;15.40;;;9.90;;
549;SDS011;20066;48.764;9.176;2023-04-09T04:16:02;18.20;;;10.77;;
549;SDS011;20066;48.764;9.176;2023-04-09T04:18:33;17.02;;;10.70;;
549;SDS011;20066;48.764;9.176;2023-04-09T04:21:01;15.50;;;10.00;;
549;SDS011;20066;48.764;9.176;2023-04-09T04:23:29;22.77;;;11.45;;
549;SDS011;20066;48.764;9.176;2023-04-09T04:25:56;15.73;;;10.45;;
549;SDS011;20066;48.764;9.176;2023-04-09T04:28:24;14.38;;;10.07;;
549;SDS011;20066;48.764;9.176;2023-04-09T04:30:52;16.45;;;10.40;;
549;SDS011;20066;48.764;9.176;2023-04-09T04:33:21;18.38;;;11.00;;
549;SDS011;20066;48.764;9.176;2023-04-09T04:35:49;17.80;;;11.25;;
549;SDS011;20066;48.764;9.176;2023-04-09T04:38:17;17.80;;;10.20;;
549;SDS011;20066;48.764;9.176;2023-04-09T04:40:44;15.15;;;9.45;;
549;SDS011;20066;48.764;9.176;2023-04-09T04:43:12;16.35;;;9.88;;
549;SDS011;20066;48.764;9.176;2023-04-09T04:45:40;18.15;;;10.35;;
549;SDS011;20066;48.764;9.176;2023-04-09T04:48:08;16.67;;;10.15;;
549;SDS011;20066;48.764;9.176;2023-04-09T04:50:37;18.50;;;11.13;;
549;SDS011;20066;48.764;9.176;2023-04-09T04:53:05;15.07;;;10.27;;
549;SDS011;20066;48.764;9.176;2023-04-09T04:55:34;16.55;;;10.10;;
549;SDS011;20066;48.764;9.176;2023-04-09T04:58:02;18.35;;;10.32;;
549;SDS011;20066;48.764;9.176;2023-04-09T05:00:30;16.92;;;10.40;;
549;SDS011;20066;48.764;9.176;2023-04-09T05:02:57;19.38;;;10.68;;
549;SDS011;20066;48.764;9.176;2023-04-09T05:05:25;15.57;;;10.45;;
549;SDS011;20066;48.764;9.176;2023-04-09T05:07:54;19.80;;;11.70;;
549;SDS011;20066;48.764;9.176;2023-04-09T05:10:22;17.50;;;10.80;;
549;SDS011;20066;48.764;9.176;2023-04-09T05:12:50;19.23;;;11.52;;
549;SDS011;20066;48.764;9.176;2023-04-09T05:15:18;16.33;;;10.07;;
549;SDS011;20066;48.764;9.176;2023-04-09T05:17:45;20.33;;;12.15;;
549;SDS011;20066;48.764;9.176;2023-04-09T05:20:13;15.98;;;9.80;;
549;SDS011;20066;48.764;9.176;2023-04-09T05:22:41;18.70;;;11.25;;
549;SDS011;20066;48.764;9.176;2023-04-09T05:25:10;18.58;;;12.02;;
549;SDS011;20066;48.764;9.176;2023-04-09T05:27:41;16.25;;;10.38;;
549;SDS011;20066;48.764;9.176;2023-04-09T05:30:09;16.30;;;10.60;;
549;SDS011;20066;48.764;9.176;2023-04-09T05:32:37;15.52;;;10.48;;
549;SDS011;20066;48.764;9.176;2023-04-09T05:35:04;22.20;;;12.38;;
549;SDS011;20066;48.764;9.176;2023-04-09T05:37:32;17.45;;;10.75;;
549;SDS011;20066;48.764;9.176;2023-04-09T05:40:00;20.15;;;11.93;;
549;SDS011;20066;48.764;9.176;2023-04-09T05:42:29;17.02;;;11.88;;
549;SDS011;20066;48.764;9.176;2023-04-09T05:44:57;20.50;;;11.50;;
549;SDS011;20066;48.764;9.176;2023-04-09T05:47:25;17.20;;;11.63;;
549;SDS011;20066;48.764;9.176;2023-04-09T05:49:54;18.08;;;11.63;;
549;SDS011;20066;48.764;9.176;2023-04-09T05:52:22;16.52;;;10.52;;
549;SDS011;20066;48.764;9.176;2023-04-09T05:54:49;19.58;;;11.75;;
549;SDS011;20066;48.764;9.176;2023-04-09T05:57:18;17.38;;;10.27;;
549;SDS011;20066;48.764;9.176;2023-04-09T05:59:47;18.90;;;10.80;;
549;SDS011;20066;48.764;9.176;2023-04-09T06:02:14;18.92;;;11.50;;
549;SDS011;20066;48.764;9.176;2023-04-09T06:04:42;18.80;;;11.48;;
549;SDS011;20066;48.764;9.176;2023-04-09T06:07:10;22.80;;;12.80;;
549;SDS011;20066;48.764;9.176;2023-04-09T06:09:38;18.60;;;11.40;;
549;SDS011;20066;48.764;9.176;2023-04-09T06:12:06;23.50;;;12.95;;
549;SDS011;20066;48.764;9.176;2023-04-09T06:14:34;21.92;;;12.80;;
549;SDS011;20066;48.764;9.176;2023-04-09T06:17:03;26.98;;;13.07;;
549;SDS011;20066;48.764;9.176;2023-04-09T06:19:30;21.88;;;14.00;;
549;SDS011;20066;48.764;9.176;2023-04-09T06:21:58;22.00;;;12.82;;
549;SDS011;20066;48.764;9.176;2023-04-09T06:24:26;21.15;;;13.45;;
549;SDS011;20066;48.764;9.176;2023-04-09T06:26:54;19.27;;;12.85;;
549;SDS011;20066;48.764;9.176;2023-04-09T06:29:21;21.33;;;13.65;;
549;SDS011;20066;48.764;9.176;2023-04-09T06:31:49;22.13;;;13.90;;
549;SDS011;20066;48.764;9.176;2023-04-09T06:34:19;21.48;;;13.77;;
549;SDS011;20066;48.764;9.176;2023-04-09T06:36:46;23.98;;;14.27;;
549;SDS011;20066;48.764;9.176;2023-04-09T06:39:14;20.08;;;12.95;;
549;SDS011;20066;48.764;9.176;2023-04-09T06:41:42;24.75;;;14.23;;
549;SDS011;20066;48.764;9.176;2023-04-09T06:44:10;20.75;;;13.35;;
549;SDS011;20066;48.764;9.176;2023-04-09T06:46:38;20.35;;;13.38;;
549;SDS011;20066;48.764;9.176;2023-04-09T06:49:06;24.45;;;14.60;;
549;SDS011;20066;48.764;9.176;2023-04-09T06:51:35;21.80;;;13.20;;
549;SDS011;20066;48.764;9.176;2023-04-09T06:54:03;20.83;;;12.90;;
549;SDS011;20066;48.764;9.176;2023-04-09T06:56:30;28.35;;;14.32;;
549;SDS011;20066;48.764;9.176;2023-04-09T06:58:58;21.08;;;12.27;;
549;SDS011;20066;48.764;9.176;2023-04-09T07:01:26;21.05;;;12.18;;
549;SDS011;20066;48.764;9.176;2023-04-09T07:03:54;20.98;;;11.95;;
549;SDS011;20066;48.764;9.176;2023-04-09T07:06:22;32.88;;;12.07;;
549;SDS011;20066;48.764;9.176;2023-04-09T07:08:51;20.88;;;11.98;;
549;SDS011;20066;48.764;9.176;2023-04-09T07:11:20;20.48;;;11.85;;
549;SDS011;20066;48.764;9.176;2023-04-09T07:13:47;20.67;;;11.02;;
549;SDS011;20066;48.764;9.176;2023-04-09T07:16:15;17.23;;;11.05;;
549;SDS011;20066;48.764;9.176;2023-04-09T07:18:43;16.55;;;10.43;;
549;SDS011;20066;48.764;9.176;2023-04-09T07:21:12;18.48;;;11.27;;
549;SDS011;20066;48.764;9.176;2023-04-09T07:23:40;17.55;;;11.05;;
549;SDS011;20066;48.764;9.176;2023-04-09T07:26:09;17.60;;;10.30;;
549;SDS011;20066;48.764;9.176;2023-04-09T07:28:36;15.80;;;9.98;;
549;SDS011;20066;48.764;9.176;2023-04-09T07:31:05;17.35;;;9.95;;
549;SDS011;20066;48.764;9.176;2023-04-09T07:33:33;14.68;;;7.90;;
549;SDS011;20066;48.764;9.176;2023-04-09T07:36:00;13.25;;;8.60;;
549;SDS011;20066;48.764;9.176;2023-04-09T07:38:28;13.25;;;8.82;;
549;SDS011;20066;48.764;9.176;2023-04-09T07:40:56;11.70;;;7.10;;
549;SDS011;20066;48.764;9.176;2023-04-09T07:43:25;12.10;;;7.13;;
549;SDS011;20066;48.764;9.176;2023-04-09T07:45:53;10.80;;;7.10;;
549;SDS011;20066;48.764;9.176;2023-04-09T07:48:21;10.10;;;6.90;;
549;SDS011;20066;48.764;9.176;2023-04-09T07:50:49;9.77;;;5.70;;
549;SDS011;20066;48.764;9.176;2023-04-09T07:53:17;11.60;;;6.33;;
549;SDS011;20066;48.764;9.176;2023-04-09T07:55:44;11.47;;;6.10;;
549;SDS011;20066;48.764;9.176;2023-04-09T07:58:12;10.60;;;6.73;;
549;SDS011;20066;48.764;9.176;2023-04-09T08:00:42;9.37;;;6.33;;
549;SDS011;20066;48.764;9.176;2023-04-09T08:03:10;9.43;;;5.67;;
549;SDS011;20066;48.764;9.176;2023-04-09T08:05:39;10.60;;;6.90;;
549;SDS011;20066;48.764;9.176;2023-04-09T08:08:07;10.33;;;6.47;;
549;SDS011;20066;48.764;9.176;2023-04-09T08:10:35;12.53;;;7.67;;
549;SDS011;20066;48.764;9.176;2023-04-09T08:13:03;12.20;;;7.73;;
549;SDS011;20066;48.764;9.176;2023-04-09T08:15:31;13.73;;;8.03;;
549;SDS011;20066;48.764;9.176;2023-04-09T08:18:00;10.50;;;6.90;;
549;SDS011;20066;48.764;9.176;2023-04-09T08:20:29;11.63;;;7.30;;
549;SDS011;20066;48.764;9.176;2023-04-09T08:22:58;10.77;;;6.90;;
549;SDS011;20066;48.764;9.176;2023-04-09T08:25:26;11.40;;;7.83;;
549;SDS011;20066;48.764;9.176;2023-04-09T08:27:53;13.10;;;7.63;;
549;SDS011;20066;48.764;9.176;2023-04-09T08:30:22;10.57;;;7.73;;
549;SDS011;20066;48.764;9.176;2023-04-09T08:32:50;9.40;;;6.10;;
549;SDS011;20066;48.764;9.176;2023-04-09T08:35:19;8.43;;;5.97;;
549;SDS011;20066;48.764;9.176;2023-04-09T08:37:48;10.93;;;6.27;;
549;SDS011;20066;48.764;9.176;2023-04-09T08:40:16;10.60;;;6.60;;
549;SDS011;20066;48.764;9.176;2023-04-09T08:42:45;10.47;;;6.40;;
549;SDS011;20066;48.764;9.176;2023-04-09T08:45:16;8.80;;;6.00;;
549;SDS011;20066;48.764;9.176;2023-04-09T08:47:44;10.60;;;6.80;;
549;SDS011;20066;48.764;9.176;2023-04-09T08:50:15;10.60;;;6.77;;
549;SDS011;20066;48.764;9.176;2023-04-09T08:52:46;12.30;;;7.43;;
549;SDS011;20066;48.764;9.176;2023-04-09T08:55:14;11.77;;;8.20;;
549;SDS011;20066;48.764;9.176;2023-04-09T08:57:42;14.47;;;7.90;;
549;SDS011;20066;48.764;9.176;2023-04-09T09:00:10;11.50;;;7.30;;
549;SDS011;20066;48.764;9.176;2023-04-09T09:02:39;13.00;;;8.10;;
549;SDS011;20066;48.764;9.176;2023-04-09T09:05:37;13.80;;;7.17;;
549;SDS011;20066;48.764;9.176;2023-04-09T09:10:51;11.10;;;7.27;;
549;SDS011;20066;48.764;9.176;2023-04-09T09:13:20;12.07;;;7.30;;
549;SDS011;20066;48.764;9.176;2023-04-09T09:15:49;10.57;;;7.10;;
549;SDS011;20066;48.764;9.176;2023-04-09T09:18:20;10.90;;;7.33;;
549;SDS011;20066;48.764;9.176;2023-04-09T09:21:08;10.00;;;6.73;;
549;SDS011;20066;48.764;9.176;2023-04-09T09:23:38;11.03;;;7.03;;
549;SDS011;20066;48.764;9.176;2023-04-09T09:26:11;10.77;;;6.40;;
549;SDS011;20066;48.764;9.176;2023-04-09T09:28:39;12.40;;;7.70;;
549;SDS011;20066;48.764;9.176;2023-04-09T09:31:08;9.57;;;6.90;;
549;SDS011;20066;48.764;9.176;2023-04-09T09:33:37;13.53;;;8.13;;
549;SDS011;20066;48.764;9.176;2023-04-09T09:36:05;12.50;;;7.93;;
549;SDS011;20066;48.764;9.176;2023-04-09T09:41:21;13.37;;;8.40;;
549;SDS011;20066;48.764;9.176;2023-04-09T09:43:49;11.57;;;7.03;;
549;SDS011;20066;48.764;9.176;2023-04-09T09:46:17;9.37;;;6.13;;
549;SDS011;20066;48.764;9.176;2023-04-09T09:48:47;12.00;;;7.60;;
549;SDS011;20066;48.764;9.176;2023-04-09T09:51:16;12.90;;;8.23;;
549;SDS011;20066;48.764;9.176;2023-04-09T09:53:45;12.63;;;6.43;;
549;SDS011;20066;48.764;9.176;2023-04-09T09:56:20;11.00;;;6.17;;
549;SDS011;20066;48.764;9.176;2023-04-09T09:58:52;10.83;;;6.47;;
549;SDS011;20066;48.764;9.176;2023-04-09T10:01:26;7.53;;;5.10;;
549;SDS011;20066;48.764;9.176;2023-04-09T10:03:55;9.13;;;5.03;;
549;SDS011;20066;48.764;9.176;2023-04-09T10:06:26;6.70;;;4.50;;
549;SDS011;20066;48.764;9.176;2023-04-09T10:08:56;7.93;;;5.07;;
549;SDS011;20066;48.764;9.176;2023-04-09T10:11:27;8.33;;;5.13;;
549;SDS011;20066;48.764;9.176;2023-04-09T10:13:56;7.10;;;4.93;;
549;SDS011;20066;48.764;9.176;2023-04-09T10:16:25;7.40;;;4.90;;
549;SDS011;20066;48.764;9.176;2023-04-09T10:18:54;7.77;;;5.33;;
549;SDS011;20066;48.764;9.176;2023-04-09T10:21:28;8.17;;;6.00;;
549;SDS011;20066;48.764;9.176;2023-04-09T10:24:00;9.43;;;6.00;;
549;SDS011;20066;48.764;9.176;2023-04-09T10:26:33;7.27;;;5.03;;
549;SDS011;20066;48.764;9.176;2023-04-09T10:29:02;8.00;;;5.00;;
549;SDS011;20066;48.764;9.176;2023-04-09T10:31:43;10.97;;;4.27;;
549;SDS011;20066;48.764;9.176;2023-04-09T10:34:14;6.40;;;4.33;;
549;SDS011;20066;48.764;9.176;2023-04-09T10:36:42;6.27;;;4.00;;
549;SDS011;20066;48.764;9.176;2023-04-09T10:39:11;6.43;;;4.50;;
549;SDS011;20066;48.764;9.176;2023-04-09T10:41:41;7.07;;;4.87;;
549;SDS011;20066;48.764;9.176;2023-04-09T10:44:20;8.73;;;5.97;;
549;SDS011;20066;48.764;9.176;2023-04-09T10:46:49;8.40;;;5.10;;
549;SDS011;20066;48.764;9.176;2023-04-09T10:49:20;9.37;;;5.60;;
549;SDS011;20066;48.764;9.176;2023-04-09T10:51:52;7.80;;;4.97;;
549;SDS011;20066;48.764;9.176;2023-04-09T10:54:39;8.70;;;5.47;;
549;SDS011;20066;48.764;9.176;2023-04-09T10:57:14;7.63;;;4.93;;
549;SDS011;20066;48.764;9.176;2023-04-09T10:59:43;11.30;;;5.60;;
549;SDS011;20066;48.764;9.176;2023-04-09T11:05:21;5.90;;;4.13;;
549;SDS011;20066;48.764;9.176;2023-04-09T11:07:56;7.17;;;4.30;;
549;SDS011;20066;48.764;9.176;2023-04-09T11:10:29;7.73;;;5.43;;
549;SDS011;20066;48.764;9.176;2023-04-09T11:12:59;7.70;;;5.53;;
549;SDS011;20066;48.764;9.176;2023-04-09T11:15:27;7.63;;;5.47;;
549;SDS011;20066;48.764;9.176;2023-04-09T11:17:55;9.07;;;5.30;;
549;SDS011;20066;48.764;9.176;2023-04-09T11:20:24;9.27;;;5.07;;
549;SDS011;20066;48.764;9.176;2023-04-09T11:22:53;8.60;;;5.60;;
549;SDS011;20066;48.764;9.176;2023-04-09T11:25:22;7.13;;;4.80;;
549;SDS011;20066;48.764;9.176;2023-04-09T11:27:51;8.50;;;5.57;;
549;SDS011;20066;48.764;9.176;2023-04-09T11:30:21;13.80;;;6.00;;
549;SDS011;20066;48.764;9.176;2023-04-09T11:32:49;8.00;;;5.50;;
549;SDS011;20066;48.764;9.176;2023-04-09T11:35:18;10.13;;;6.50;;
549;SDS011;20066;48.764;9.176;2023-04-09T11:37:47;11.90;;;7.03;;
549;SDS011;20066;48.764;9.176;2023-04-09T11:40:18;8.57;;;5.00;;
549;SDS011;20066;48.764;9.176;2023-04-09T11:42:47;9.03;;;5.50;;
549;SDS011;20066;48.764;9.176;2023-04-09T11:45:17;8.60;;;5.40;;
549;SDS011;20066;48.764;9.176;2023-04-09T11:47:47;8.47;;;5.60;;
549;SDS011;20066;48.764;9.176;2023-04-09T11:50:15;8.00;;;5.50;;
549;SDS011;20066;48.764;9.176;2023-04-09T11:52:44;7.97;;;5.03;;
549;SDS011;20066;48.764;9.176;2023-04-09T11:57:56;7.93;;;4.60;;
549;SDS011;20066;48.764;9.176;2023-04-09T12:00:27;7.67;;;5.30;;
549;SDS011;20066;48.764;9.176;2023-04-09T12:02:59;8.63;;;5.17;;
549;SDS011;20066;48.764;9.176;2023-04-09T12:05:29;7.53;;;5.03;;
549;SDS011;20066;48.764;9.176;2023-04-09T12:07:59;7.40;;;5.27;;
549;SDS011;20066;48.764;9.176;2023-04-09T12:10:29;7.53;;;4.93;;
549;SDS011;20066;48.764;9.176;2023-04-09T12:13:00;8.50;;;4.87;;
549;SDS011;20066;48.764;9.176;2023-04-09T12:15:30;6.97;;;4.97;;
549;SDS011;20066;48.764;9.176;2023-04-09T12:18:01;8.63;;;5.57;;
549;SDS011;20066;48.764;9.176;2023-04-09T12:20:30;7.83;;;5.30;;
549;SDS011;20066;48.764;9.176;2023-04-09T12:23:00;9.63;;;5.80;;
549;SDS011;20066;48.764;9.176;2023-04-09T12:25:29;8.13;;;5.67;;
549;SDS011;20066;48.764;9.176;2023-04-09T12:27:57;8.27;;;5.40;;
549;SDS011;20066;48.764;9.176;2023-04-09T12:33:10;9.80;;;5.60;;
549;SDS011;20066;48.764;9.176;2023-04-09T12:35:38;8.27;;;5.30;;
549;SDS011;20066;48.764;9.176;2023-04-09T12:38:06;8.27;;;5.47;;
549;SDS011;20066;48.764;9.176;2023-04-09T12:40:34;7.97;;;5.10;;
549;SDS011;20066;48.764;9.176;2023-04-09T12:43:02;9.67;;;6.27;;
549;SDS011;20066;48.764;9.176;2023-04-09T12:45:30;7.60;;;5.40;;
549;SDS011;20066;48.764;9.176;2023-04-09T12:47:58;10.20;;;6.17;;
549;SDS011;20066;48.764;9.176;2023-04-09T12:50:27;9.30;;;5.70;;
549;SDS011;20066;48.764;9.176;2023-04-09T12:52:55;10.33;;;6.30;;
549;SDS011;20066;48.764;9.176;2023-04-09T12:55:23;8.70;;;5.23;;
549;SDS011;20066;48.764;9.176;2023-04-09T12:57:50;9.07;;;6.67;;
549;SDS011;20066;48.764;9.176;2023-04-09T13:00:18;8.57;;;5.70;;
549;SDS011;20066;48.764;9.176;2023-04-09T13:02:46;9.07;;;5.50;;
549;SDS011;20066;48.764;9.176;2023-04-09T13:05:14;8.80;;;5.70;;
549;SDS011;20066;48.764;9.176;2023-04-09T13:07:43;9.17;;;5.30;;
549;SDS011;20066;48.764;9.176;2023-04-09T13:10:10;7.00;;;4.77;;
549;SDS011;20066;48.764;9.176;2023-04-09T13:12:38;7.73;;;4.60;;
549;SDS011;20066;48.764;9.176;2023-04-09T13:15:06;6.90;;;4.27;;
549;SDS011;20066;48.764;9.176;2023-04-09T13:17:34;7.07;;;4.67;;
549;SDS011;20066;48.764;9.176;2023-04-09T13:20:02;7.57;;;5.23;;
549;SDS011;20066;48.764;9.176;2023-04-09T13:22:30;6.73;;;4.23;;
549;SDS011;20066;48.764;9.176;2023-04-09T13:24:59;8.80;;;4.40;;
549;SDS011;20066;48.764;9.176;2023-04-09T13:27:27;9.60;;;4.30;;
549;SDS011;20066;48.764;9.176;2023-04-09T13:29:55;7.30;;;4.20;;
549;SDS011;20066;48.764;9.176;2023-04-09T13:32:23;8.10;;;5.10;;
549;SDS011;20066;48.764;9.176;2023-04-09T13:34:51;7.67;;;4.67;;
549;SDS011;20066;48.764;9.176;2023-04-09T13:37:20;6.93;;;4.73;;
549;SDS011;20066;48.764;9.176;2023-04-09T13:39:48;7.60;;;4.60;;
549;SDS011;20066;48.764;9.176;2023-04-09T13:42:17;7.60;;;4.70;;
549;SDS011;20066;48.764;9.176;2023-04-09T13:44:45;7.87;;;4.70;;
549;SDS011;20066;48.764;9.176;2023-04-09T13:47:14;7.40;;;4.57;;
549;SDS011;20066;48.764;9.176;2023-04-09T13:49:43;7.30;;;4.10;;
549;SDS011;20066;48.764;9.176;2023-04-09T13:52:11;6.07;;;4.13;;
549;SDS011;20066;48.764;9.176;2023-04-09T13:54:39;7.63;;;4.60;;
549;SDS011;20066;48.764;9.176;2023-04-09T13:57:07;8.13;;;4.93;;
549;SDS011;20066;48.764;9.176;2023-04-09T13:59:36;7.87;;;4.73;;
549;SDS011;20066;48.764;9.176;2023-04-09T14:02:07;8.23;;;4.90;;
549;SDS011;20066;48.764;9.176;2023-04-09T14:04:35;7.70;;;4.80;;
549;SDS011;20066;48.764;9.176;2023-04-09T14:07:03;7.17;;;5.00;;
549;SDS011;20066;48.764;9.176;2023-04-09T14:09:31;6.40;;;4.10;;
549;SDS011;20066;48.764;9.176;2023-04-09T14:11:59;6.77;;;4.00;;
549;SDS011;20066;48.764;9.176;2023-04-09T14:14:27;7.67;;;4.67;;
549;SDS011;20066;48.764;9.176;2023-04-09T14:16:56;6.70;;;4.07;;
549;SDS011;20066;48.764;9.176;2023-04-09T14:19:23;8.03;;;4.73;;
549;SDS011;20066;48.764;9.176;2023-04-09T14:21:51;9.60;;;4.70;;
549;SDS011;20066;48.764;9.176;2023-04-09T14:24:25;5.67;;;3.50;;
549;SDS011;20066;48.764;9.176;2023-04-09T14:26:53;7.60;;;4.40;;
549;SDS011;20066;48.764;9.176;2023-04-09T14:29:20;7.33;;;4.10;;
549;SDS011;20066;48.764;9.176;2023-04-09T14:31:48;6.67;;;4.50;;
549;SDS011;20066;48.764;9.176;2023-04-09T14:34:18;8.30;;;5.20;;
549;SDS011;20066;48.764;9.176;2023-04-09T14:36:46;6.50;;;4.13;;
549;SDS011;20066;48.764;9.176;2023-04-09T14:39:14;8.57;;;5.07;;
549;SDS011;20066;48.764;9.176;2023-04-09T14:41:41;7.00;;;4.50;;
549;SDS011;20066;48.764;9.176;2023-04-09T14:44:09;8.30;;;5.13;;
549;SDS011;20066;48.764;9.176;2023-04-09T14:46:37;6.57;;;4.30;;
549;SDS011;20066;48.764;9.176;2023-04-09T14:49:05;7.60;;;4.67;;
549;SDS011;20066;48.764;9.176;2023-04-09T14:51:34;6.60;;;4.50;;
549;SDS011;20066;48.764;9.176;2023-04-09T14:54:02;10.60;;;5.90;;
549;SDS011;20066;48.764;9.176;2023-04-09T14:56:30;8.43;;;5.13;;
549;SDS011;20066;48.764;9.176;2023-04-09T14:58:58;8.27;;;4.97;;
549;SDS011;20066;48.764;9.176;2023-04-09T15:01:25;9.43;;;5.03;;
549;SDS011;20066;48.764;9.176;2023-04-09T15:03:54;8.83;;;5.17;;
549;SDS011;20066;48.764;9.176;2023-04-09T15:06:22;8.37;;;5.23;;
549;SDS011;20066;48.764;9.176;2023-04-09T15:08:51;10.43;;;5.90;;
549;SDS011;20066;48.764;9.176;2023-04-09T15:11:19;8.63;;;5.40;;
549;SDS011;20066;48.764;9.176;2023-04-09T15:13:48;8.27;;;5.10;;
549;SDS011;20066;48.764;9.176;2023-04-09T15:16:19;9.33;;;5.47;;
549;SDS011;20066;48.764;9.176;2023-04-09T15:18:47;9.30;;;5.40;;
549;SDS011;20066;48.764;9.176;2023-04-09T15:21:17;8.43;;;5.33;;
549;SDS011;20066;48.764;9.176;2023-04-09T15:23:45;7.90;;;4.73;;
549;SDS011;20066;48.764;9.176;2023-04-09T15:26:15;8.57;;;5.07;;
549;SDS011;20066;48.764;9.176;2023-04-09T15:28:42;8.10;;;4.90;;